• Join FlightAware (Why Join?)
  • Login
  • US Flag 
02:00PM EDT


 

Airport Tracker/Info


-or-


 

Live Flight TrackerFlight Track Log ✈ N724AE ✈ 18-May-2013 ✈ KABI - KDFW

Flight Track Log - Related Links

Times and Time Zones

All times are in EDT time to prevent confusion due to time zone crossing. See the N724AE flight status page for this flight to view local times or setup timezone preferences in your user account.

Time Position Orientation Groundspeed Altitude Reporting Facility
EDT Latitude Longitude Course Direction KTS MPH feet Rate Location/Type
09:26AM 32.4597 -99.4329 90° East  Level Estimated
09:26AM 32.3467 -99.4717 106° East 283 326 8,200  Level Fort Worth Center
09:27AM 32.4757 -99.3498 110° East  Level Estimated
09:27AM 32.3358 -99.3756 98° East 283 326 10,200  Level Fort Worth Center
09:28AM 32.4109 -99.3129 154° Southeast  Level FlightAware Approximate
09:28AM 32.3247 -99.2744 97° East 302 348 12,200  Level Fort Worth Center
09:29AM 32.4292 -99.2306 113° Southeast  Level Estimated
09:29AM 32.3136 -99.1686 97° East 312 359 14,600  Level Fort Worth Center
09:30AM 32.3706 -99.1814 145° Southeast  Level FlightAware Approximate
09:30AM 32.3006 -99.0625 98° East 318 366 16,500  Level Fort Worth Center
09:31AM 32.3914 -99.0999 106° East  Level Estimated
09:31AM 32.2894 -98.9542 97° East 324 373 18,600  Level Fort Worth Center
09:32AM 32.2783 -98.8436 97° East 335 386 20,200 1,200 Climbing Fort Worth Center
09:33AM 32.2647 -98.7303 98° East 340 391 21,000 360 Climbing Fort Worth Center
09:34AM 32.2514 -98.6169 98° East 340 391 21,000  Level Fort Worth Center
09:35AM 32.2400 -98.5039 97° East 340 391 21,000  Level Fort Worth Center
09:36AM 32.2219 -98.3858 100° East 352 405 21,000  Level Fort Worth Center
09:37AM 32.2231 -98.2533 89° East 372 428 21,000  Level Fort Worth Center
09:38AM 32.2489 -98.1306 76° East 416 479 21,000 -780 Level Fort Worth Center
09:39AM 32.2789 -97.9811 77° East 421 484 19,500 -1,920 Descending Fort Worth Center
09:40AM 32.3022 -97.8681 76° East 403 464 17,200 -2,520 Descending Fort Worth Center
09:41AM 32.3256 -97.7381 78° East 374 430 14,500 -2,400 Descending Fort Worth Center
09:42AM 32.3572 -97.6444 68° East 341 392 12,400 -1,740 Descending Fort Worth Center
09:43AM 32.4261 -97.5611 46° Northeast 324 373 11,100 -660 Descending Fort Worth Center
09:44AM 32.4825 -97.4947 45° Northeast 311 358 11,100  Level Fort Worth Center
09:45AM 32.5494 -97.4133 46° Northeast 311 358 11,100  Level Fort Worth Center
09:46AM 32.6078 -97.3469 44° Northeast 306 352 11,100  Level Fort Worth Center
09:47AM 32.6747 -97.2603 47° Northeast 306 352 11,100  Level Fort Worth Center
09:48AM 32.7289 -97.1936 46° Northeast 306 352 11,100 -60 Level Fort Worth Center
09:49AM 32.8019 -97.1711 15° North 274 315 11,000 -900 Descending Fort Worth Center
09:50AM 32.8769 -97.1686 North 263 303 9,400 -1,620 Descending Fort Worth Center
09:51AM 32.9542 -97.1658 North 263 303 7,800 -1,500 Descending Fort Worth Center
09:52AM 33.0314 -97.1656 360° North 268 308 6,400 -1,500 Descending Fort Worth Center
09:53AM 33.1086 -97.1631 North 263 303 4,800 -1,320 Descending Fort Worth Center
09:54AM 33.1608 -97.1356 24° Northeast 213 245 3,800 -540 Descending Fort Worth Center
09:56AM 33.1000 -97.0500 130° Southeast 167 192 3,100 -360 Descending Dallas / Fort Worth TRACON